Urb Diplo, Puerto Rico
Current Conditions -  °F | °C
As of 7:53 PM on Thursday 18 Dec 2014 (Local Time) from TJNR Reporting Station
Scattered Clouds Scattered Clouds  
Wind Chill: 78°   Ceiling: Unl
Heat Index: 80°   Visibility: 10mi
Dew Point: 68°   Wind: 5mph
Humidity: 71%   Direction: 60°ENE
Pressure: 30.01"   Gusts: NA
Location:  18.2147°N, 65.7358°W
Report Text: TJNR 182353Z AUTO 06004KT 10SM SCT055 26/20 A3001 RMK AO2 SLP161 T02560200 10289 20256 51007 $
Loading
Personal Weather Stations






























Interactive Weather Map New forecast layout! Learn more

10-Day Weather Forecast

Advertisements
Track Severe Weather on mobile